Terminal Aerodrome Forecast
Issued by NWS

Home | Current Version | Previous Version | Text Only | Print | Product List | Glossary On
Versions: 1 2 3 4 5 6 7 8 9 10 11 12 13 14 15 16 17 18 19
000
FTUS46 KSEW 190525
TAFBFI
TAF
KBFI 190525Z 1906/2006 36004KT P6SM BKN040 BKN060
     FM191300 VRB03KT P6SM OVC015
     FM191800 29005KT P6SM SCT035 SCT250=

USA.gov is the U.S. government's official web portal to all federal, state and local government web resources and services.